METAR Data
IDs: Format: Raw Decoded Include TAF

Data at: 0648 UTC 01 Aug 2021

EPWA 010630Z 27003KT CAVOK 21/12 Q1009 NOSIG